createdAt,value
2017-08-10T00:00:33.395Z,69.77
2017-08-10T00:03:05.668Z,69.80
2017-08-10T00:05:34.368Z,69.87
2017-08-10T00:08:03.018Z,69.87
2017-08-10T00:10:31.730Z,70.08
2017-08-10T00:13:04.169Z,70.09
2017-08-10T00:15:32.906Z,70.09
2017-08-10T00:18:01.597Z,70.04
2017-08-10T00:20:30.290Z,70.16
2017-08-10T00:23:04.434Z,70.16
2017-08-10T00:25:33.099Z,70.21
2017-08-10T00:28:01.831Z,70.27
2017-08-10T00:30:32.235Z,70.26
2017-08-10T00:33:04.280Z,70.26
2017-08-10T00:35:33.039Z,70.27
2017-08-10T00:38:01.739Z,70.33
2017-08-10T00:40:30.428Z,70.33
2017-08-10T00:43:02.531Z,70.44
2017-08-10T00:45:31.221Z,70.49
2017-08-10T00:47:59.955Z,70.55
2017-08-10T00:50:28.648Z,70.55
2017-08-10T00:52:57.313Z,70.62
2017-08-10T00:55:26.046Z,70.56
2017-08-10T00:57:57.527Z,70.53
2017-08-10T01:00:26.409Z,70.66
2017-08-10T01:02:55.166Z,70.59
2017-08-10T01:05:23.907Z,70.70
2017-08-10T01:07:52.560Z,70.72
2017-08-10T01:10:21.241Z,70.74
2017-08-10T01:12:49.884Z,70.70
2017-08-10T01:15:18.620Z,70.75
2017-08-10T01:17:47.369Z,70.85
2017-08-10T01:20:16.086Z,70.87
2017-08-10T01:22:44.778Z,70.92
2017-08-10T01:25:13.506Z,70.87
2017-08-10T01:27:42.204Z,70.99
2017-08-10T01:30:10.850Z,70.96
2017-08-10T01:32:39.595Z,71.04
2017-08-10T01:35:08.301Z,71.11
2017-08-10T01:37:37.022Z,71.10
2017-08-10T01:40:05.765Z,71.17
2017-08-10T01:42:34.494Z,71.15
2017-08-10T01:45:03.261Z,71.29
2017-08-10T01:47:31.962Z,71.23
2017-08-10T01:50:00.712Z,71.28
2017-08-10T01:52:29.492Z,71.43
2017-08-10T01:54:58.218Z,71.36
2017-08-10T01:57:26.951Z,71.34
2017-08-10T01:59:55.610Z,71.40
2017-08-10T02:02:24.275Z,71.48
2017-08-10T02:04:53.021Z,71.43
2017-08-10T02:07:21.706Z,71.43
2017-08-10T02:09:50.417Z,71.54
2017-08-10T02:12:19.136Z,71.54
2017-08-10T02:14:47.886Z,71.53
2017-08-10T02:17:16.547Z,71.57
2017-08-10T02:19:45.279Z,71.65
2017-08-10T02:22:14.026Z,71.74
2017-08-10T02:24:42.702Z,71.72
2017-08-10T02:27:11.455Z,71.75
2017-08-10T02:29:40.141Z,71.63
2017-08-10T02:32:08.870Z,71.64
2017-08-10T02:34:37.624Z,71.77
2017-08-10T02:37:06.314Z,71.80
2017-08-10T02:39:35.041Z,71.79
2017-08-10T02:42:03.721Z,71.78
2017-08-10T02:44:32.463Z,71.78
2017-08-10T02:47:01.148Z,71.78
2017-08-10T02:49:29.944Z,71.81
2017-08-10T02:51:58.608Z,71.91
2017-08-10T02:54:27.329Z,72.02
2017-08-10T02:56:56.058Z,72.03
2017-08-10T02:59:24.729Z,71.92
2017-08-10T03:01:53.433Z,72.05
2017-08-10T03:04:22.168Z,72.05
2017-08-10T03:06:50.835Z,72.08
2017-08-10T03:09:19.580Z,72.05
2017-08-10T03:11:48.267Z,72.05
2017-08-10T03:14:16.956Z,72.11
2017-08-10T03:16:45.695Z,72.17
2017-08-10T03:19:14.438Z,72.25
2017-08-10T03:21:43.255Z,72.20
2017-08-10T03:24:11.923Z,72.20
2017-08-10T03:26:40.700Z,72.26
2017-08-10T03:29:09.353Z,72.34
2017-08-10T03:31:38.052Z,72.28
2017-08-10T03:34:06.797Z,72.22
2017-08-10T03:36:35.474Z,72.37
2017-08-10T03:39:03.987Z,72.44
2017-08-10T03:41:32.721Z,72.35
2017-08-10T03:44:01.417Z,72.52
2017-08-10T03:46:30.104Z,72.52
2017-08-10T03:48:58.791Z,72.55
2017-08-10T03:51:27.500Z,72.53
2017-08-10T03:53:56.135Z,72.60
2017-08-10T03:56:24.844Z,72.58
2017-08-10T03:58:53.522Z,72.58
2017-08-10T04:01:22.243Z,72.57
2017-08-10T04:03:50.957Z,72.62
2017-08-10T04:06:19.608Z,72.54
2017-08-10T04:08:48.313Z,72.56
2017-08-10T04:11:18.366Z,72.63
2017-08-10T04:13:47.284Z,72.67
2017-08-10T04:16:17.259Z,72.63
2017-08-10T04:18:50.868Z,72.72
2017-08-10T04:21:19.554Z,72.79
2017-08-10T04:23:48.282Z,72.80
2017-08-10T04:26:17.539Z,72.66
2017-08-10T04:28:46.377Z,72.62
2017-08-10T04:31:15.047Z,72.79
2017-08-10T04:33:44.013Z,72.75
2017-08-10T04:36:12.718Z,72.68
2017-08-10T04:38:41.372Z,72.76
2017-08-10T04:41:10.102Z,72.82
2017-08-10T04:43:38.777Z,73.00
2017-08-10T04:46:07.499Z,72.95
2017-08-10T04:48:36.224Z,72.86
2017-08-10T04:51:04.879Z,72.91
2017-08-10T04:53:33.607Z,72.83
2017-08-10T04:56:02.356Z,72.83
2017-08-10T04:58:31.028Z,72.85
2017-08-10T05:00:59.738Z,72.87
2017-08-10T05:03:28.438Z,72.82
2017-08-10T05:05:57.208Z,72.79
2017-08-10T05:08:25.921Z,72.72
2017-08-10T05:10:54.610Z,72.66
2017-08-10T05:13:23.335Z,72.76
2017-08-10T05:15:52.065Z,72.73
2017-08-10T05:18:20.754Z,72.59
2017-08-10T05:20:49.447Z,72.37
2017-08-10T05:23:18.162Z,72.33
2017-08-10T05:25:46.880Z,72.27
2017-08-10T05:28:15.610Z,72.25
2017-08-10T05:30:44.335Z,72.21
2017-08-10T05:33:13.070Z,72.36
2017-08-10T05:35:41.753Z,72.41
2017-08-10T05:38:10.424Z,72.43
2017-08-10T05:40:39.184Z,72.68
2017-08-10T05:43:08.154Z,72.73
2017-08-10T05:45:36.894Z,72.49
2017-08-10T05:48:05.616Z,72.64
2017-08-10T05:50:34.677Z,72.54
2017-08-10T05:53:05.455Z,72.58
2017-08-10T05:55:34.144Z,72.91
2017-08-10T05:58:02.802Z,72.93
2017-08-10T06:00:31.546Z,72.90
2017-08-10T06:03:04.468Z,73.10
2017-08-10T06:05:33.148Z,73.20
2017-08-10T06:08:01.838Z,73.14
2017-08-10T06:10:30.583Z,73.13
2017-08-10T06:13:03.776Z,73.55
2017-08-10T06:15:32.480Z,73.30
2017-08-10T06:18:01.183Z,73.29
2017-08-10T06:20:29.882Z,73.27
2017-08-10T06:23:02.170Z,73.45
2017-08-10T06:25:30.863Z,73.47
2017-08-10T06:27:59.553Z,73.28
2017-08-10T06:30:28.281Z,73.40
2017-08-10T06:33:00.629Z,73.39
2017-08-10T06:35:29.379Z,73.45
2017-08-10T06:37:58.047Z,73.44
2017-08-10T06:40:26.742Z,73.38
2017-08-10T06:42:55.476Z,73.43
2017-08-10T06:45:24.127Z,73.48
2017-08-10T06:47:52.900Z,73.37
2017-08-10T06:50:21.536Z,73.37
2017-08-10T06:52:50.178Z,73.26
2017-08-10T06:55:18.955Z,73.20
2017-08-10T06:57:47.635Z,73.21
2017-08-10T07:00:16.347Z,73.13
2017-08-10T07:02:45.002Z,72.95
2017-08-10T07:05:13.686Z,72.94
2017-08-10T07:07:42.387Z,72.72
2017-08-10T07:10:11.059Z,72.60
2017-08-10T07:12:39.788Z,72.52
2017-08-10T07:15:08.689Z,72.57
2017-08-10T07:17:37.360Z,72.57
2017-08-10T07:20:06.054Z,72.25
2017-08-10T07:22:34.693Z,72.32
2017-08-10T07:25:03.401Z,72.18
2017-08-10T07:27:32.067Z,72.11
2017-08-10T07:30:01.625Z,72.13
2017-08-10T07:32:30.288Z,72.12
2017-08-10T07:34:58.978Z,72.16
2017-08-10T07:37:27.672Z,72.02
2017-08-10T07:39:56.400Z,72.01
2017-08-10T07:42:25.109Z,72.16
2017-08-10T07:44:53.800Z,71.92
2017-08-10T07:47:22.473Z,71.97
2017-08-10T07:49:51.177Z,71.81
2017-08-10T07:52:19.906Z,71.70
2017-08-10T07:54:48.560Z,71.69
2017-08-10T07:57:17.322Z,71.66
2017-08-10T07:59:46.012Z,71.54
2017-08-10T08:02:14.667Z,71.72
2017-08-10T08:04:43.382Z,71.52
2017-08-10T08:07:12.050Z,71.77
2017-08-10T08:09:40.774Z,71.51
2017-08-10T08:12:09.599Z,71.59
2017-08-10T08:14:38.364Z,71.52
2017-08-10T08:17:07.030Z,71.58
2017-08-10T08:19:35.781Z,71.46
2017-08-10T08:22:04.460Z,71.30
2017-08-10T08:24:33.178Z,71.30
2017-08-10T08:27:01.951Z,71.49
2017-08-10T08:29:30.713Z,71.34
2017-08-10T08:31:59.372Z,71.43
2017-08-10T08:34:28.080Z,71.37
2017-08-10T08:36:56.747Z,71.25
2017-08-10T08:39:25.458Z,71.16
2017-08-10T08:41:54.184Z,71.14
2017-08-10T08:44:23.169Z,71.24
2017-08-10T08:46:51.870Z,71.30
2017-08-10T08:49:20.636Z,71.38
2017-08-10T08:51:49.317Z,71.42
2017-08-10T08:54:18.009Z,71.30
2017-08-10T08:56:46.749Z,71.42
2017-08-10T08:59:15.512Z,71.32
2017-08-10T09:01:44.250Z,71.06
2017-08-10T09:04:12.995Z,70.90
2017-08-10T09:06:41.788Z,70.98
2017-08-10T09:09:10.497Z,70.79
2017-08-10T09:11:39.242Z,70.53
2017-08-10T09:14:08.005Z,70.85
2017-08-10T09:16:36.753Z,70.81
2017-08-10T09:19:05.443Z,70.84
2017-08-10T09:21:34.165Z,70.49
2017-08-10T09:24:02.912Z,70.26
2017-08-10T09:26:31.653Z,70.18
2017-08-10T09:29:00.367Z,70.01
2017-08-10T09:31:29.056Z,69.78
2017-08-10T09:33:57.783Z,69.66
2017-08-10T09:36:26.438Z,69.72
2017-08-10T09:38:55.180Z,69.58
2017-08-10T09:41:23.917Z,69.42
2017-08-10T09:43:52.606Z,69.22
2017-08-10T09:46:21.369Z,69.37
2017-08-10T09:48:50.094Z,69.11
2017-08-10T09:51:18.854Z,69.15
2017-08-10T09:53:47.582Z,69.19
2017-08-10T09:56:16.317Z,69.16
2017-08-10T09:58:45.027Z,69.29
2017-08-10T10:01:13.816Z,69.17
2017-08-10T10:03:42.568Z,69.23
2017-08-10T10:06:11.290Z,69.17
2017-08-10T10:08:40.002Z,69.25
2017-08-10T10:11:08.687Z,68.98
2017-08-10T10:13:37.180Z,68.99
2017-08-10T10:16:05.908Z,68.85
2017-08-10T10:18:34.610Z,68.71
2017-08-10T10:21:03.292Z,68.61
2017-08-10T10:23:32.040Z,68.52
2017-08-10T10:26:00.742Z,68.42
2017-08-10T10:28:29.390Z,68.32
2017-08-10T10:30:58.124Z,68.26
2017-08-10T10:33:26.938Z,68.40
2017-08-10T10:35:55.676Z,68.10
2017-08-10T10:38:24.381Z,68.07
2017-08-10T10:40:53.045Z,67.89
2017-08-10T10:43:21.754Z,67.79
2017-08-10T10:45:50.438Z,67.86
2017-08-10T10:48:19.174Z,67.73
2017-08-10T10:50:47.869Z,67.68
2017-08-10T10:53:16.609Z,67.78
2017-08-10T10:55:45.326Z,67.70
2017-08-10T10:58:13.772Z,67.69
2017-08-10T11:00:42.492Z,67.55
2017-08-10T11:03:10.913Z,67.38
2017-08-10T11:05:39.657Z,67.26
2017-08-10T11:08:08.452Z,67.03
2017-08-10T11:10:36.837Z,67.14
2017-08-10T11:13:05.656Z,67.15
2017-08-10T11:15:34.404Z,67.05
2017-08-10T11:18:03.119Z,66.91
2017-08-10T11:20:31.815Z,66.89
2017-08-10T11:23:03.629Z,66.81
2017-08-10T11:25:32.294Z,66.72
2017-08-10T11:28:01.102Z,66.58
2017-08-10T11:30:29.780Z,66.36
2017-08-10T11:33:05.371Z,66.60
2017-08-10T11:35:34.093Z,66.51
2017-08-10T11:38:02.748Z,66.39
2017-08-10T11:40:31.478Z,65.84
2017-08-10T11:43:03.308Z,66.37
2017-08-10T11:45:32.038Z,66.27
2017-08-10T11:48:00.782Z,66.09
2017-08-10T11:50:29.445Z,65.77
2017-08-10T11:53:02.124Z,65.85
2017-08-10T11:55:30.774Z,65.74
2017-08-10T11:57:59.443Z,65.63
2017-08-10T12:00:28.292Z,65.58
2017-08-10T12:03:01.325Z,65.34
2017-08-10T12:05:30.044Z,64.84
2017-08-10T12:07:59.761Z,64.85
2017-08-10T12:10:28.407Z,64.58
2017-08-10T12:12:57.119Z,64.62
2017-08-10T12:15:25.851Z,64.09
2017-08-10T12:17:54.589Z,64.57
2017-08-10T12:20:23.531Z,64.48
2017-08-10T12:22:52.197Z,64.31
2017-08-10T12:25:20.928Z,64.02
2017-08-10T12:27:49.588Z,63.52
2017-08-10T12:30:18.329Z,63.74
2017-08-10T12:32:47.012Z,63.54
2017-08-10T12:35:15.684Z,63.37
2017-08-10T12:37:44.394Z,63.54
2017-08-10T12:40:13.067Z,63.23
2017-08-10T12:42:41.832Z,63.29
2017-08-10T12:45:10.535Z,63.28
2017-08-10T12:47:39.226Z,63.19
2017-08-10T12:50:07.959Z,63.19
2017-08-10T12:52:36.713Z,63.10
2017-08-10T12:55:05.408Z,62.80
2017-08-10T12:57:34.136Z,63.03
2017-08-10T13:00:02.769Z,62.80
2017-08-10T13:02:31.472Z,62.82
2017-08-10T13:05:00.172Z,62.94
2017-08-10T13:07:28.817Z,62.90
2017-08-10T13:09:57.635Z,62.98
2017-08-10T13:12:26.382Z,63.14
2017-08-10T13:14:55.096Z,62.96
2017-08-10T13:17:23.809Z,63.15
2017-08-10T13:19:52.476Z,63.07
2017-08-10T13:22:21.263Z,63.26
2017-08-10T13:24:49.992Z,63.02
2017-08-10T13:27:18.711Z,63.18
2017-08-10T13:29:47.410Z,63.38
2017-08-10T13:32:16.152Z,63.39
2017-08-10T13:34:44.892Z,63.11
2017-08-10T13:37:13.580Z,63.23
2017-08-10T13:39:42.300Z,63.01
2017-08-10T13:42:10.978Z,62.71
2017-08-10T13:44:39.704Z,63.14
2017-08-10T13:47:08.365Z,63.15
2017-08-10T13:49:37.101Z,63.40
2017-08-10T13:52:05.812Z,63.08
2017-08-10T13:54:34.490Z,63.15
2017-08-10T13:57:03.261Z,63.30
2017-08-10T13:59:31.995Z,63.30
2017-08-10T14:02:00.727Z,63.34
2017-08-10T14:04:29.393Z,63.45
2017-08-10T14:06:57.976Z,63.46
2017-08-10T14:09:26.684Z,63.47
2017-08-10T14:11:55.331Z,63.46
2017-08-10T14:14:24.045Z,63.38
2017-08-10T14:16:52.738Z,63.40
2017-08-10T14:19:21.484Z,63.55
2017-08-10T14:21:50.269Z,63.56
2017-08-10T14:24:18.969Z,63.53
2017-08-10T14:26:47.840Z,63.44
2017-08-10T14:29:16.514Z,63.55
2017-08-10T14:31:45.204Z,63.76
2017-08-10T14:34:13.953Z,63.65
2017-08-10T14:36:42.721Z,63.71
2017-08-10T14:39:12.382Z,63.88
2017-08-10T14:41:41.110Z,64.01
2017-08-10T14:44:09.847Z,64.06
2017-08-10T14:46:38.629Z,64.18
2017-08-10T14:49:07.432Z,64.16
2017-08-10T14:51:36.630Z,64.30
2017-08-10T14:54:05.341Z,64.42
2017-08-10T14:56:34.030Z,64.37
2017-08-10T14:59:02.696Z,64.48
2017-08-10T15:01:31.451Z,64.50
2017-08-10T15:04:00.103Z,64.51
2017-08-10T15:06:28.817Z,64.53
2017-08-10T15:08:57.512Z,64.63
2017-08-10T15:11:26.170Z,64.62
2017-08-10T15:13:54.906Z,64.70
2017-08-10T15:16:23.593Z,64.76
2017-08-10T15:18:52.902Z,64.78
2017-08-10T15:21:21.574Z,64.61
2017-08-10T15:23:50.619Z,64.68
2017-08-10T15:26:19.399Z,64.65
2017-08-10T15:28:51.048Z,64.58
2017-08-10T15:31:19.787Z,64.77
2017-08-10T15:33:59.592Z,64.71
2017-08-10T15:36:40.624Z,64.55
2017-08-10T15:39:18.342Z,64.69
2017-08-10T15:44:43.213Z,64.82
2017-08-10T15:47:28.644Z,64.88
2017-08-10T15:50:10.424Z,64.78
2017-08-10T15:52:49.324Z,65.01
2017-08-10T15:55:35.521Z,64.90
2017-08-10T15:58:16.441Z,65.01
2017-08-10T16:00:58.511Z,65.00
2017-08-10T16:03:36.698Z,64.97
2017-08-10T16:06:19.149Z,64.89
2017-08-10T16:08:58.964Z,64.61
2017-08-10T16:11:37.822Z,64.59
2017-08-10T16:17:05.620Z,64.71
2017-08-10T16:19:38.091Z,64.80
2017-08-10T16:22:14.969Z,64.68
2017-08-10T16:24:44.721Z,64.53
2017-08-10T16:27:14.783Z,64.74
2017-08-10T16:32:22.127Z,64.83
2017-08-10T16:34:51.325Z,64.71
2017-08-10T16:37:20.742Z,64.89
2017-08-10T16:39:49.815Z,64.73
2017-08-10T16:42:19.295Z,64.85
2017-08-10T16:44:52.462Z,64.76
2017-08-10T16:47:21.664Z,64.88
2017-08-10T16:49:59.918Z,64.96
2017-08-10T16:52:41.257Z,64.88
2017-08-10T16:55:18.116Z,64.91
2017-08-10T16:57:58.160Z,64.99
2017-08-10T17:00:39.547Z,65.19
2017-08-10T17:03:22.185Z,65.21
2017-08-10T17:06:01.331Z,65.41
2017-08-10T17:08:40.817Z,65.41
2017-08-10T17:11:22.895Z,65.10
2017-08-10T17:14:07.713Z,65.29
2017-08-10T17:16:37.268Z,65.14
2017-08-10T17:19:05.975Z,65.18
2017-08-10T17:21:34.677Z,65.22
2017-08-10T17:24:03.391Z,65.24
2017-08-10T17:26:32.116Z,65.09
2017-08-10T17:29:00.788Z,65.28
2017-08-10T17:31:29.488Z,65.40
2017-08-10T17:34:06.529Z,65.50
2017-08-10T17:36:35.311Z,65.47
2017-08-10T17:39:14.453Z,65.48
2017-08-10T17:41:56.619Z,65.54
2017-08-10T17:44:37.758Z,65.82
2017-08-10T17:47:10.313Z,65.72
2017-08-10T17:49:39.078Z,65.77
2017-08-10T17:52:20.916Z,65.93
2017-08-10T17:54:59.876Z,66.04
2017-08-10T17:57:42.063Z,66.02
2017-08-10T18:00:24.015Z,66.11
2017-08-10T18:05:54.906Z,66.24
2017-08-10T18:08:40.492Z,66.29
2017-08-10T18:11:09.494Z,66.37
2017-08-10T18:13:46.163Z,66.47
2017-08-10T18:16:25.975Z,66.60
2017-08-10T18:18:55.270Z,66.68
2017-08-10T18:21:30.036Z,66.73
2017-08-10T18:24:07.604Z,66.80
2017-08-10T18:26:47.086Z,66.85
2017-08-10T18:29:28.668Z,66.86
2017-08-10T18:32:01.252Z,66.82
2017-08-10T18:34:33.296Z,66.98
2017-08-10T18:37:07.460Z,66.85
2017-08-10T18:39:39.120Z,66.97
2017-08-10T18:42:10.727Z,66.92
2017-08-10T18:44:41.090Z,67.04
2017-08-10T18:47:11.340Z,67.07
2017-08-10T18:49:41.576Z,67.20
2017-08-10T18:52:14.064Z,67.19
2017-08-10T18:54:47.070Z,67.11
2017-08-10T18:57:19.431Z,67.26
2017-08-10T18:59:51.310Z,67.21
2017-08-10T19:02:20.916Z,67.32
2017-08-10T19:04:52.165Z,67.27
2017-08-10T19:07:24.846Z,67.40
2017-08-10T19:09:56.576Z,67.46
2017-08-10T19:12:28.367Z,67.65
2017-08-10T19:14:59.056Z,67.61
2017-08-10T19:17:31.266Z,67.81
2017-08-10T19:20:02.408Z,67.75
2017-08-10T19:22:34.949Z,68.14
2017-08-10T19:25:04.183Z,68.11
2017-08-10T19:27:32.893Z,68.24
2017-08-10T19:30:16.787Z,68.43
2017-08-10T19:33:01.149Z,68.34
2017-08-10T19:41:20.900Z,68.19
2017-08-10T19:44:04.771Z,67.96
2017-08-10T19:46:50.557Z,67.97
2017-08-10T19:49:34.633Z,67.80
2017-08-10T19:55:06.376Z,67.72
2017-08-10T19:57:49.563Z,67.83
2017-08-10T20:03:27.342Z,67.52
2017-08-10T20:09:01.515Z,67.94
2017-08-10T20:11:50.010Z,68.28
2017-08-10T20:17:24.585Z,68.54
2017-08-10T20:20:09.290Z,68.52
2017-08-10T20:22:55.425Z,68.69
2017-08-10T20:25:39.864Z,68.48
2017-08-10T20:28:24.034Z,68.67
2017-08-10T20:31:09.977Z,68.53
2017-08-10T20:33:57.657Z,68.48
2017-08-10T20:36:42.125Z,68.33
2017-08-10T20:39:25.615Z,68.19
2017-08-10T20:42:08.560Z,68.24
2017-08-10T20:44:50.736Z,67.98
2017-08-10T20:47:33.463Z,68.08
2017-08-10T20:50:15.723Z,68.15
2017-08-10T20:52:57.307Z,67.94
2017-08-10T20:55:39.901Z,67.98
2017-08-10T20:58:21.159Z,68.10
2017-08-10T21:01:03.677Z,68.05
2017-08-10T21:03:45.178Z,67.94
2017-08-10T21:06:27.491Z,68.03
2017-08-10T21:09:09.196Z,67.93
2017-08-10T21:11:38.732Z,68.00
2017-08-10T21:14:07.496Z,68.05
2017-08-10T21:16:36.182Z,68.18
2017-08-10T21:19:04.858Z,68.09
2017-08-10T21:21:33.656Z,68.09
2017-08-10T21:24:02.443Z,68.15
2017-08-10T21:26:31.148Z,68.20
2017-08-10T21:28:59.820Z,68.13
2017-08-10T21:31:28.531Z,68.14
2017-08-10T21:33:57.280Z,68.10
2017-08-10T21:36:25.976Z,68.12
2017-08-10T21:38:54.711Z,68.11
2017-08-10T21:41:23.648Z,68.11
2017-08-10T21:43:52.459Z,68.14
2017-08-10T21:46:21.163Z,68.22
2017-08-10T21:48:49.845Z,68.34
2017-08-10T21:51:18.382Z,68.42
2017-08-10T21:53:47.096Z,68.42
2017-08-10T21:56:15.798Z,68.45
2017-08-10T21:58:45.423Z,68.56
2017-08-10T22:01:14.171Z,68.65
2017-08-10T22:03:42.874Z,68.67
2017-08-10T22:06:11.785Z,68.81
2017-08-10T22:08:40.533Z,68.83
2017-08-10T22:11:09.233Z,68.95
2017-08-10T22:13:37.949Z,68.95
2017-08-10T22:16:06.883Z,68.88
2017-08-10T22:18:35.621Z,69.10
2017-08-10T22:21:07.096Z,69.20
2017-08-10T22:23:38.347Z,69.20
2017-08-10T22:26:07.457Z,69.32
2017-08-10T22:28:36.344Z,69.26
2017-08-10T22:31:05.076Z,69.39
2017-08-10T22:33:37.920Z,69.49
2017-08-10T22:36:07.955Z,69.53
2017-08-10T22:38:37.851Z,69.46
2017-08-10T22:41:09.876Z,69.65
2017-08-10T22:43:42.132Z,69.61
2017-08-10T22:46:18.298Z,69.53
2017-08-10T22:48:47.872Z,69.83
2017-08-10T22:51:18.998Z,69.87
2017-08-10T22:53:49.052Z,69.81
2017-08-10T22:56:18.501Z,70.00
2017-08-10T22:58:48.331Z,70.02
2017-08-10T23:01:18.035Z,70.03
2017-08-10T23:03:47.416Z,70.10
2017-08-10T23:06:17.611Z,70.08
2017-08-10T23:08:50.167Z,70.18
2017-08-10T23:11:19.803Z,70.19
2017-08-10T23:13:49.552Z,70.27
2017-08-10T23:16:18.817Z,70.25
2017-08-10T23:18:48.739Z,70.27
2017-08-10T23:21:21.343Z,70.25
2017-08-10T23:23:53.264Z,70.28
2017-08-10T23:26:26.266Z,70.48
2017-08-10T23:28:57.387Z,70.47
2017-08-10T23:31:28.304Z,70.42
2017-08-10T23:33:59.759Z,70.41
2017-08-10T23:36:31.132Z,70.50
2017-08-10T23:39:03.691Z,70.54
2017-08-10T23:41:34.303Z,70.67
2017-08-10T23:44:05.310Z,70.68
2017-08-10T23:46:36.487Z,70.77
2017-08-10T23:49:05.213Z,70.73
2017-08-10T23:51:33.854Z,70.78
2017-08-10T23:54:02.578Z,70.83
2017-08-10T23:56:31.247Z,70.81
2017-08-10T23:58:59.979Z,70.84
